Time;durP1;ratioP1;P1;durP2;ratioP2;P2;SDS_P1;SDS_P2;PMS_P1;PMS_P2;Temp;Humidity;BMP_temperature;BMP_pressure;BME280_temperature;BME280_humidity;BME280_pressure;Samples;Min_cycle;Max_cycle;Signal;HPM_P1;HPM_P2
2023/10/10 00:01:45;;;;;;;18.70;13.67;;;10.90;99.90;;;;;;6191436;23;20399;-88
2023/10/10 00:04:19;;;;;;;15.87;11.63;;;;;;;;;;6191288;23;20406;-88
2023/10/10 00:06:49;;;;;;;22.80;13.30;;;;;;;;;;6192125;23;20426;-86
2023/10/10 00:09:23;;;;;;;14.70;11.33;;;10.90;99.90;;;;;;6192868;23;20735;-88
2023/10/10 00:11:58;;;;;;;14.33;12.17;;;10.90;99.90;;;;;;6198137;23;20456;-87
2023/10/10 00:14:29;;;;;;;17.53;10.97;;;;;;;;;;6208045;23;20925;-87
2023/10/10 00:16:59;;;;;;;16.87;11.17;;;;;;;;;;6204664;23;20433;-87
2023/10/10 00:19:31;;;;;;;14.53;10.97;;;;;;;;;;6196335;23;20426;-87
2023/10/10 00:21:59;;;;;;;23.23;11.33;;;;;;;;;;6208215;23;20394;-87
2023/10/10 00:24:30;;;;;;;12.77;11.13;;;;;;;;;;6211676;23;20461;-87
2023/10/10 00:27:00;;;;;;;15.03;10.90;;;10.90;99.90;;;;;;6200464;23;20457;-86
2023/10/10 00:29:28;;;;;;;16.10;11.27;;;;;;;;;;6201090;23;20458;-88
2023/10/10 00:32:04;;;;;;;15.90;11.33;;;;;;;;;;6191331;23;20399;-87
2023/10/10 00:34:33;;;;;;;12.37;10.10;;;;;;;;;;6191534;23;20442;-88
2023/10/10 00:37:08;;;;;;;15.10;10.37;;;10.90;99.90;;;;;;6189547;23;20408;-87
2023/10/10 00:39:36;;;;;;;12.43;9.07;;;;;;;;;;6190081;23;20462;-88
2023/10/10 00:42:07;;;;;;;22.33;11.80;;;10.90;99.90;;;;;;6191965;23;20474;-88
2023/10/10 00:44:37;;;;;;;13.90;11.03;;;10.70;99.90;;;;;;6201205;23;20447;-88
2023/10/10 00:47:12;;;;;;;14.57;11.10;;;10.90;99.90;;;;;;6203441;23;20467;-87
2023/10/10 00:49:40;;;;;;;13.27;9.67;;;;;;;;;;6211991;23;20423;-87
2023/10/10 00:52:07;;;;;;;11.77;9.03;;;10.90;99.90;;;;;;6211146;23;20383;-87
2023/10/10 00:54:43;;;;;;;11.07;9.20;;;11.00;99.90;;;;;;6211450;23;20939;-87
2023/10/10 00:57:13;;;;;;;10.17;9.07;;;10.90;99.90;;;;;;6208820;23;20398;-87
2023/10/10 00:59:47;;;;;;;13.40;10.30;;;10.90;99.90;;;;;;6203260;23;20431;-88
2023/10/10 01:02:17;;;;;;;10.40;8.27;;;10.90;99.90;;;;;;6206365;23;20395;-87
2023/10/10 01:04:57;;;;;;;11.20;9.27;;;10.80;99.90;;;;;;6203773;23;20403;-88
2023/10/10 01:07:25;;;;;;;11.27;9.03;;;;;;;;;;6198665;23;20450;-87
2023/10/10 01:09:58;;;;;;;11.70;9.17;;;9.60;99.90;;;;;;6213742;23;20423;-87
2023/10/10 01:12:35;;;;;;;11.87;9.40;;;10.80;99.90;;;;;;6214691;23;20430;-87
2023/10/10 01:15:08;;;;;;;12.17;9.20;;;10.90;99.90;;;;;;6207900;23;20427;-88
2023/10/10 01:17:38;;;;;;;13.07;9.83;;;11.00;99.90;;;;;;6203264;23;20407;-88
2023/10/10 01:20:18;;;;;;;12.90;9.33;;;11.00;99.90;;;;;;6203755;23;20438;-87
2023/10/10 01:22:56;;;;;;;12.80;9.70;;;11.00;99.90;;;;;;6203089;23;20447;-88
2023/10/10 01:25:42;;;;;;;11.50;10.30;;;;;;;;;;6202034;23;20493;-87
2023/10/10 01:28:27;;;;;;;11.37;8.97;;;11.00;99.90;;;;;;6198744;23;20395;-87
2023/10/10 01:33:47;;;;;;;13.50;10.00;;;;;;;;;;6204907;23;20410;-88
2023/10/10 01:36:19;;;;;;;15.40;9.73;;;10.80;99.90;;;;;;6213508;23;20517;-88
2023/10/10 01:39:28;;;;;;;9.73;8.63;;;11.00;99.90;;;;;;6196410;23;20427;-88
2023/10/10 01:41:58;;;;;;;13.50;9.63;;;11.00;99.90;;;;;;6190672;23;20403;-88
2023/10/10 01:44:28;;;;;;;14.13;10.13;;;11.00;99.90;;;;;;6191922;23;20380;-88
2023/10/10 01:46:58;;;;;;;13.30;8.30;;;11.00;99.90;;;;;;6190751;23;20441;-88
2023/10/10 01:49:29;;;;;;;12.70;9.80;;;;;;;;;;6197513;23;20491;-88
2023/10/10 01:51:58;;;;;;;8.93;8.03;;;;;;;;;;6190807;23;20403;-88
2023/10/10 01:54:34;;;;;;;12.00;8.60;;;11.00;99.90;;;;;;6190233;23;20960;-88
2023/10/10 01:57:06;;;;;;;11.00;7.83;;;;;;;;;;6195186;23;20392;-88
2023/10/10 01:59:38;;;;;;;12.37;7.83;;;11.00;99.90;;;;;;6201279;23;20430;-88
2023/10/10 02:02:10;;;;;;;10.27;8.40;;;;;;;;;;6190637;23;20790;-88
2023/10/10 02:04:39;;;;;;;10.70;8.63;;;;;;;;;;6191239;23;20387;-88
2023/10/10 02:07:14;;;;;;;9.63;7.80;;;;;;;;;;6191065;23;20733;-89
2023/10/10 02:09:45;;;;;;;9.60;7.47;;;11.00;99.90;;;;;;6190982;23;20485;-88
2023/10/10 02:12:22;;;;;;;10.03;8.27;;;;;;;;;;6190398;23;20398;-88
2023/10/10 02:14:49;;;;;;;11.97;7.83;;;;;;;;;;6190337;23;20438;-88
2023/10/10 02:17:26;;;;;;;10.57;8.43;;;;;;;;;;6190011;23;20497;-88
2023/10/10 02:19:59;;;;;;;10.00;7.10;;;;;;;;;;6189220;23;20427;-88
2023/10/10 02:22:36;;;;;;;10.03;7.60;;;;;;;;;;6190095;23;20403;-88
2023/10/10 02:28:00;;;;;;;9.93;7.93;;;;;;;;;;6151539;23;20401;-88
2023/10/10 02:30:34;;;;;;;10.27;8.13;;;11.00;99.90;;;;;;6189943;23;20926;-88
2023/10/10 02:33:14;;;;;;;13.60;8.80;;;;;;;;;;6192288;23;20397;-88
2023/10/10 02:36:00;;;;;;;10.60;7.90;;;11.10;99.90;;;;;;6191728;23;20442;-88
2023/10/10 02:38:39;;;;;;;9.40;7.10;;;11.00;99.90;;;;;;6202110;23;20400;-88
2023/10/10 02:44:09;;;;;;;8.60;7.13;;;11.00;99.90;;;;;;6204065;23;20403;-88
2023/10/10 02:46:38;;;;;;;8.30;7.40;;;;;;;;;;6190550;23;20383;-88
2023/10/10 02:49:12;;;;;;;11.47;9.00;;;11.10;99.90;;;;;;6188626;23;20486;-88
2023/10/10 02:51:45;;;;;;;13.90;9.10;;;11.30;99.90;;;;;;6191860;23;20361;-88
2023/10/10 02:54:27;;;;;;;12.43;8.60;;;11.20;99.90;;;;;;6195175;23;20411;-87
2023/10/10 02:57:05;;;;;;;14.10;8.47;;;11.20;99.90;;;;;;6196944;23;20421;-88
2023/10/10 02:59:38;;;;;;;10.10;7.83;;;;;;;;;;6193960;23;20436;-87
2023/10/10 03:02:10;;;;;;;13.70;9.60;;;10.90;99.90;;;;;;6189293;23;20893;-88
2023/10/10 03:05:05;;;;;;;10.90;8.33;;;;;;;;;;6189080;23;20411;-88
2023/10/10 03:07:33;;;;;;;11.23;9.00;;;;;;;;;;6191972;23;20489;-89
2023/10/10 03:10:22;;;;;;;11.87;8.37;;;11.20;99.90;;;;;;6192434;23;20706;-88
2023/10/10 03:12:52;;;;;;;13.23;8.93;;;11.20;99.90;;;;;;6190984;23;20402;-88
2023/10/10 03:15:30;;;;;;;14.10;9.70;;;11.20;99.90;;;;;;6196762;23;20447;-88
2023/10/10 03:18:18;;;;;;;14.60;9.60;;;11.20;99.90;;;;;;6191062;23;20388;-88
2023/10/10 03:21:06;;;;;;;15.90;9.73;;;;;;;;;;6190671;23;20399;-88
2023/10/10 03:23:41;;;;;;;16.03;9.60;;;;;;;;;;6194176;23;20395;-87
2023/10/10 03:26:07;;;;;;;19.03;10.50;;;11.30;99.90;;;;;;6208415;23;20414;-88
2023/10/10 03:28:44;;;;;;;20.40;10.30;;;11.70;99.90;;;;;;6192390;23;20804;-88
2023/10/10 03:31:23;;;;;;;16.40;10.40;;;11.30;99.90;;;;;;6194239;23;20391;-87
2023/10/10 03:34:11;;;;;;;16.10;10.60;;;11.30;99.90;;;;;;6194039;23;20920;-87
2023/10/10 03:36:44;;;;;;;16.13;11.03;;;11.30;99.90;;;;;;6192699;23;20425;-88
2023/10/10 03:39:26;;;;;;;18.73;10.00;;;11.30;99.90;;;;;;6192480;23;20431;-89
2023/10/10 05:24:26;;;;;;;18.97;12.87;;;12.20;99.90;;;;;;6190547;23;20442;-88
2023/10/10 05:27:05;;;;;;;25.53;13.93;;;12.10;99.90;;;;;;6190364;23;20403;-89
2023/10/10 05:29:33;;;;;;;27.73;14.70;;;;;;;;;;6190300;23;20431;-89
2023/10/10 05:32:08;;;;;;;28.13;15.73;;;;;;;;;;6190855;23;20407;-89
2023/10/10 05:34:37;;;;;;;23.47;13.87;;;;;;;;;;6191684;23;20789;-86
2023/10/10 05:37:07;;;;;;;30.30;18.17;;;;;;;;;;6200411;23;20426;-89
2023/10/10 05:40:06;;;;;;;23.13;14.03;;;12.30;99.90;;;;;;6212086;23;20434;-89
2023/10/10 15:26:58;;;;;;;5.30;3.97;;;16.30;99.90;;;;;;6202615;23;20419;-91
2023/10/10 15:29:46;;;;;;;8.10;4.67;;;16.00;99.90;;;;;;6212227;23;20407;-89
2023/10/10 15:35:55;;;;;;;7.87;5.47;;;;;;;;;;6173171;23;20450;-89
2023/10/10 15:41:19;;;;;;;4.90;3.53;;;16.20;99.90;;;;;;6201780;23;20479;-84
2023/10/10 15:43:51;;;;;;;8.40;4.40;;;16.20;99.90;;;;;;6209797;23;20407;-85
2023/10/10 15:46:19;;;;;;;7.67;4.30;;;16.20;99.90;;;;;;6208549;23;20463;-87
2023/10/10 15:48:49;;;;;;;8.10;4.60;;;16.20;99.90;;;;;;6197075;23;20407;-87
2023/10/10 15:51:17;;;;;;;4.70;4.13;;;16.10;99.90;;;;;;6196587;23;20933;-86
2023/10/10 15:53:44;;;;;;;6.80;4.87;;;16.10;99.90;;;;;;6196639;23;20412;-86
2023/10/10 15:56:12;;;;;;;8.63;6.20;;;16.00;99.90;;;;;;6199082;23;20499;-87
2023/10/10 15:58:42;;;;;;;13.90;6.30;;;15.90;99.90;;;;;;6208488;23;20426;-88
2023/10/10 16:01:14;;;;;;;7.67;5.90;;;15.80;99.90;;;;;;6202718;23;20396;-85
2023/10/10 16:03:47;;;;;;;7.67;4.60;;;15.80;99.90;;;;;;6196037;23;20417;-86
2023/10/10 16:06:14;;;;;;;7.63;3.80;;;15.80;99.90;;;;;;6207230;23;20367;-86
2023/10/10 16:08:41;;;;;;;9.50;4.37;;;15.70;99.90;;;;;;6213308;23;20403;-86
2023/10/10 16:11:08;;;;;;;5.90;5.23;;;15.70;99.90;;;;;;6212691;23;20419;-86
2023/10/10 16:13:36;;;;;;;5.23;4.37;;;15.60;99.90;;;;;;6215079;23;20402;-86
2023/10/10 16:16:07;;;;;;;5.37;4.30;;;15.60;99.90;;;;;;6215288;23;20434;-86
2023/10/10 16:18:36;;;;;;;6.10;4.10;;;15.60;99.90;;;;;;6214859;23;20388;-86
2023/10/10 16:21:04;;;;;;;4.80;4.10;;;15.60;99.90;;;;;;6208812;23;20956;-88
2023/10/10 16:23:33;;;;;;;4.93;4.03;;;15.40;99.90;;;;;;6197664;23;20402;-88
2023/10/10 16:26:04;;;;;;;4.17;3.87;;;14.90;99.90;;;;;;6197075;23;20403;-88
2023/10/10 16:28:35;;;;;;;8.23;4.40;;;15.50;99.90;;;;;;6195670;23;20387;-88
2023/10/10 16:31:06;;;;;;;5.10;4.70;;;;;;;;;;6197745;23;20423;-88
2023/10/10 16:33:37;;;;;;;5.90;5.27;;;15.50;99.90;;;;;;6197613;23;20422;-87
2023/10/10 16:36:10;;;;;;;6.00;5.03;;;15.40;99.90;;;;;;6193984;23;20453;-89
2023/10/10 16:38:40;;;;;;;5.77;5.20;;;15.40;99.90;;;;;;6204202;23;20403;-88
2023/10/10 16:41:07;;;;;;;9.80;5.47;;;15.30;99.90;;;;;;6196601;23;20506;-87
2023/10/10 16:43:37;;;;;;;5.03;4.47;;;15.30;99.90;;;;;;6194933;23;20446;-88
2023/10/10 16:46:09;;;;;;;7.87;5.80;;;15.30;99.90;;;;;;6194685;23;20490;-88
2023/10/10 16:48:39;;;;;;;7.47;5.73;;;15.30;99.90;;;;;;6193021;23;20415;-88
2023/10/10 16:51:08;;;;;;;8.80;6.40;;;15.30;99.90;;;;;;6193224;23;20426;-90
2023/10/10 16:53:39;;;;;;;4.30;3.87;;;15.30;99.90;;;;;;6200215;23;20422;-88
2023/10/10 16:56:07;;;;;;;6.77;5.10;;;15.50;99.90;;;;;;6214911;23;20411;-90
2023/10/10 16:58:36;;;;;;;7.50;5.77;;;15.30;99.90;;;;;;6213685;23;20821;-89
2023/10/10 17:01:04;;;;;;;9.83;8.30;;;15.30;99.90;;;;;;6205665;23;20435;-89
2023/10/10 17:03:32;;;;;;;8.33;7.53;;;15.30;99.90;;;;;;6194818;23;20411;-89
2023/10/10 17:06:01;;;;;;;6.17;5.50;;;15.30;99.90;;;;;;6196890;23;20712;-89
2023/10/10 17:08:32;;;;;;;6.13;5.27;;;;;;;;;;6210440;23;20438;-89
2023/10/10 17:11:06;;;;;;;10.43;6.60;;;15.30;99.90;;;;;;6200265;23;20483;-88
2023/10/10 17:13:37;;;;;;;10.70;8.50;;;15.40;99.90;;;;;;6196707;23;20387;-89
2023/10/10 17:16:10;;;;;;;6.80;6.10;;;15.30;99.90;;;;;;6198318;23;20383;-88
2023/10/10 17:18:38;;;;;;;7.80;7.00;;;15.30;99.90;;;;;;6194331;23;20442;-88
2023/10/10 17:21:07;;;;;;;5.63;5.13;;;15.30;99.90;;;;;;6194199;23;20960;-88
2023/10/10 17:23:35;;;;;;;8.47;5.30;;;;;;;;;;6209976;23;20757;-88
2023/10/10 17:26:04;;;;;;;7.00;6.40;;;;;;;;;;6212477;23;20442;-88
2023/10/10 17:28:31;;;;;;;6.73;6.10;;;15.30;99.90;;;;;;6209817;23;20411;-88
2023/10/10 17:31:00;;;;;;;8.27;7.20;;;15.20;99.90;;;;;;6205871;23;20434;-87
2023/10/10 17:33:28;;;;;;;8.77;6.43;;;15.20;99.90;;;;;;6197229;23;20411;-89
2023/10/10 17:35:55;;;;;;;11.20;7.70;;;;;;;;;;6194353;23;20479;-89
2023/10/10 17:38:24;;;;;;;7.27;6.60;;;15.20;99.90;;;;;;6197950;23;20739;-89
2023/10/10 17:40:51;;;;;;;7.37;6.07;;;15.20;99.90;;;;;;6194845;23;20438;-88
2023/10/10 17:43:21;;;;;;;8.13;6.27;;;15.20;99.90;;;;;;6197956;23;20404;-88
2023/10/10 17:45:48;;;;;;;6.43;5.73;;;15.20;99.90;;;;;;6199275;23;20485;-88
2023/10/10 17:48:17;;;;;;;9.23;7.70;;;15.40;99.90;;;;;;6205888;23;20475;-89
2023/10/10 17:50:44;;;;;;;8.20;7.07;;;15.40;99.90;;;;;;6202722;23;20995;-88
2023/10/10 17:53:12;;;;;;;9.00;6.50;;;15.20;99.90;;;;;;6201187;23;20466;-88
2023/10/10 17:55:41;;;;;;;12.33;7.57;;;15.20;99.90;;;;;;6200157;23;20407;-89
2023/10/10 17:58:09;;;;;;;11.90;8.07;;;15.30;99.90;;;;;;6211972;23;20446;-87
2023/10/10 18:00:36;;;;;;;11.00;9.13;;;15.30;99.90;;;;;;6202638;23;20458;-88
2023/10/10 18:03:04;;;;;;;9.50;6.93;;;15.20;99.90;;;;;;6205055;23;20407;-87
2023/10/10 18:05:36;;;;;;;11.07;7.20;;;15.40;99.90;;;;;;6214338;23;20391;-89
2023/10/10 18:08:05;;;;;;;8.87;7.97;;;15.20;99.90;;;;;;6213260;23;20396;-90
2023/10/10 18:10:36;;;;;;;9.53;8.53;;;;;;;;;;6214530;23;20434;-89
2023/10/10 18:13:05;;;;;;;9.93;7.90;;;15.20;99.90;;;;;;6200490;23;20387;-89
2023/10/10 18:15:32;;;;;;;8.77;7.70;;;15.20;99.90;;;;;;6196294;23;20408;-88
2023/10/10 18:17:59;;;;;;;8.80;7.50;;;15.20;99.90;;;;;;6197549;23;20446;-88
2023/10/10 18:20:26;;;;;;;14.60;8.70;;;15.10;99.90;;;;;;6194571;23;20454;-88
2023/10/10 18:22:53;;;;;;;12.20;8.50;;;15.20;99.90;;;;;;6202901;23;20407;-89
2023/10/10 18:25:23;;;;;;;9.70;8.50;;;15.20;99.90;;;;;;6206479;23;20398;-88
2023/10/10 18:27:50;;;;;;;10.23;8.40;;;;;;;;;;6214011;23;20387;-88
2023/10/10 18:30:20;;;;;;;19.73;9.30;;;15.20;99.90;;;;;;6211348;23;20427;-88
2023/10/10 18:32:49;;;;;;;9.87;8.87;;;15.00;99.90;;;;;;6208264;23;20746;-88
2023/10/10 18:35:17;;;;;;;12.13;7.83;;;15.20;99.90;;;;;;6195841;23;20415;-88
2023/10/10 18:37:47;;;;;;;15.73;11.63;;;15.60;99.90;;;;;;6194535;23;20964;-88
2023/10/10 18:40:18;;;;;;;12.10;8.70;;;15.20;99.90;;;;;;6195227;23;20447;-88
2023/10/10 18:42:48;;;;;;;12.17;8.40;;;15.40;99.90;;;;;;6195518;23;20407;-88
2023/10/10 18:45:16;;;;;;;12.33;7.90;;;14.70;99.90;;;;;;6194160;23;20404;-88
2023/10/10 18:47:48;;;;;;;7.57;6.67;;;14.80;99.90;;;;;;6193287;23;20465;-88
2023/10/10 18:50:19;;;;;;;14.10;8.40;;;15.10;99.90;;;;;;6194884;23;20429;-88
2023/10/10 18:52:49;;;;;;;9.87;8.37;;;14.40;99.90;;;;;;6193973;23;20407;-88
2023/10/10 18:55:17;;;;;;;14.57;10.17;;;;;;;;;;6193556;23;20395;-88
2023/10/10 18:57:46;;;;;;;10.90;9.03;;;15.10;99.90;;;;;;6191026;23;20845;-88
2023/10/10 19:00:15;;;;;;;15.73;10.10;;;15.10;99.90;;;;;;6191114;23;20503;-88
2023/10/10 19:02:45;;;;;;;10.83;9.67;;;15.10;99.90;;;;;;6203628;23;20422;-87
2023/10/10 19:05:15;;;;;;;13.57;10.60;;;15.00;99.90;;;;;;6213831;23;20380;-88
2023/10/10 19:07:44;;;;;;;11.47;8.67;;;15.00;99.90;;;;;;6213678;23;20426;-88
2023/10/10 19:10:13;;;;;;;10.37;8.70;;;15.00;99.90;;;;;;6201773;23;20458;-88
2023/10/10 19:12:41;;;;;;;14.90;8.67;;;;;;;;;;6200333;23;20459;-89
2023/10/10 19:15:13;;;;;;;11.20;7.80;;;15.00;99.90;;;;;;6207062;23;20403;-89
2023/10/10 19:17:45;;;;;;;10.83;9.73;;;14.90;99.90;;;;;;6213690;23;20437;-89
2023/10/10 19:20:17;;;;;;;9.30;8.40;;;14.90;99.90;;;;;;6205918;23;20435;-88
2023/10/10 19:22:47;;;;;;;8.93;8.07;;;14.80;99.90;;;;;;6199876;23;20399;-89
2023/10/10 19:25:16;;;;;;;11.23;9.17;;;14.90;99.90;;;;;;6212893;23;20414;-88
2023/10/10 19:27:44;;;;;;;12.13;10.33;;;;;;;;;;6213544;23;20429;-88
2023/10/10 19:30:16;;;;;;;14.83;9.63;;;14.90;99.90;;;;;;6202683;23;20434;-88
2023/10/10 19:32:48;;;;;;;13.37;9.63;;;14.80;99.90;;;;;;6196166;23;20398;-89
2023/10/10 19:35:16;;;;;;;10.83;9.10;;;;;;;;;;6196598;23;20449;-88
2023/10/10 19:37:46;;;;;;;11.50;9.67;;;15.00;99.90;;;;;;6194235;23;20470;-87
2023/10/10 19:40:18;;;;;;;16.30;9.80;;;14.70;99.90;;;;;;6193840;23;20430;-89
2023/10/10 19:42:45;;;;;;;12.93;10.33;;;14.80;99.90;;;;;;6194406;23;20458;-88
2023/10/10 19:45:13;;;;;;;11.93;10.00;;;15.00;99.90;;;;;;6195105;23;20710;-88
2023/10/10 19:47:41;;;;;;;11.30;9.97;;;;;;;;;;6198917;23;20438;-88
2023/10/10 19:50:10;;;;;;;10.60;9.43;;;14.90;99.90;;;;;;6205645;23;20427;-88
2023/10/10 19:52:40;;;;;;;13.50;11.30;;;14.90;99.90;;;;;;6215771;23;20422;-91
2023/10/10 19:55:11;;;;;;;13.67;10.60;;;14.80;99.90;;;;;;6215888;23;20410;-89
2023/10/10 19:57:39;;;;;;;19.10;12.27;;;;;;;;;;6215954;23;20450;-89
2023/10/10 20:00:19;;;;;;;13.17;10.33;;;14.80;99.90;;;;;;6215633;23;20430;-90
2023/10/10 20:02:47;;;;;;;21.57;16.50;;;14.10;99.90;;;;;;6216020;23;20410;-91
2023/10/10 20:05:18;;;;;;;11.87;10.67;;;15.10;99.90;;;;;;6215932;23;20399;-88
2023/10/10 20:07:47;;;;;;;11.60;10.40;;;14.80;99.90;;;;;;6215710;23;20402;-88
2023/10/10 20:10:16;;;;;;;12.03;8.90;;;14.80;99.90;;;;;;6210824;23;20433;-87
2023/10/10 20:12:51;;;;;;;11.90;10.03;;;14.80;99.90;;;;;;6200476;23;20461;-89
2023/10/10 20:15:21;;;;;;;12.37;11.07;;;14.80;99.90;;;;;;6198409;23;20390;-87
2023/10/10 20:17:49;;;;;;;13.27;10.70;;;15.20;99.90;;;;;;6196724;23;20475;-87
2023/10/10 20:20:19;;;;;;;13.90;10.43;;;14.80;99.90;;;;;;6194922;23;20434;-87
2023/10/10 20:22:47;;;;;;;14.13;12.30;;;;;;;;;;6198143;23;20391;-88
2023/10/10 20:25:18;;;;;;;19.47;15.00;;;14.80;99.90;;;;;;6197771;23;20438;-89
2023/10/10 20:27:45;;;;;;;20.43;13.10;;;14.20;99.90;;;;;;6194988;23;20924;-87
2023/10/10 20:30:14;;;;;;;14.40;11.23;;;14.80;99.90;;;;;;6194809;23;20425;-88
2023/10/10 20:32:42;;;;;;;14.70;9.70;;;;;;;;;;6201541;23;20418;-86
2023/10/10 20:35:15;;;;;;;14.73;10.67;;;14.90;99.90;;;;;;6198906;23;20402;-88
2023/10/10 20:37:45;;;;;;;14.93;10.67;;;14.80;99.90;;;;;;6203188;23;20423;-88
2023/10/10 20:40:16;;;;;;;13.93;11.30;;;14.80;99.90;;;;;;6214400;23;20450;-88
2023/10/10 20:42:45;;;;;;;12.83;10.20;;;14.80;99.90;;;;;;6212063;23;20372;-88
2023/10/10 20:45:13;;;;;;;13.30;12.00;;;14.80;99.90;;;;;;6200344;23;20407;-89
2023/10/10 20:47:42;;;;;;;12.10;10.43;;;14.80;99.90;;;;;;6210791;23;20418;-88
2023/10/10 20:50:11;;;;;;;17.23;11.20;;;14.80;99.90;;;;;;6202604;23;20482;-89
2023/10/10 20:52:39;;;;;;;14.07;11.07;;;;;;;;;;6203376;23;20470;-89
2023/10/10 20:55:08;;;;;;;14.90;12.30;;;14.80;99.90;;;;;;6207271;23;20439;-90
2023/10/10 20:57:37;;;;;;;15.93;11.80;;;14.80;99.90;;;;;;6204319;23;20489;-89
2023/10/10 21:00:06;;;;;;;20.03;11.90;;;14.80;99.90;;;;;;6204835;23;20423;-88
2023/10/10 21:02:35;;;;;;;12.20;10.83;;;14.80;99.90;;;;;;6203773;23;20495;-87
2023/10/10 21:05:02;;;;;;;13.40;12.00;;;;;;;;;;6206315;23;20483;-88
2023/10/10 21:07:29;;;;;;;17.53;10.70;;;14.80;99.90;;;;;;6211439;23;20402;-89
2023/10/10 21:09:56;;;;;;;14.13;10.37;;;14.80;99.90;;;;;;6199012;23;20522;-87
2023/10/10 21:12:25;;;;;;;13.20;10.07;;;14.90;99.90;;;;;;6206726;23;20403;-88
2023/10/10 21:14:54;;;;;;;14.80;11.40;;;14.80;99.90;;;;;;6214216;23;20470;-89
2023/10/10 21:17:21;;;;;;;11.00;9.90;;;;;;;;;;6212968;23;20465;-87
2023/10/10 21:19:48;;;;;;;14.97;10.60;;;14.80;99.90;;;;;;6206155;23;20416;-88
2023/10/10 21:22:16;;;;;;;13.13;10.80;;;;;;;;;;6200252;23;20430;-88
2023/10/10 21:24:43;;;;;;;18.00;12.73;;;14.80;99.90;;;;;;6194626;23;20403;-88
2023/10/10 21:27:10;;;;;;;14.63;12.33;;;14.80;99.90;;;;;;6199825;23;20407;-88
2023/10/10 21:29:39;;;;;;;15.47;11.93;;;14.80;99.90;;;;;;6206460;23;20486;-89
2023/10/10 21:32:06;;;;;;;20.23;12.57;;;14.70;99.90;;;;;;6204894;23;20403;-88
2023/10/10 21:34:33;;;;;;;14.20;11.10;;;14.80;99.90;;;;;;6198161;23;20430;-88
2023/10/10 21:37:00;;;;;;;14.50;11.23;;;14.80;99.90;;;;;;6201571;23;20909;-87
2023/10/10 21:39:30;;;;;;;17.87;13.57;;;;;;;;;;6198164;23;20457;-90
2023/10/10 21:42:00;;;;;;;14.77;12.50;;;;;;;;;;6171008;23;20422;-91
2023/10/10 21:44:30;;;;;;;22.83;13.73;;;14.80;99.90;;;;;;6182518;23;20388;-90
2023/10/10 21:47:03;;;;;;;12.27;10.87;;;14.70;99.90;;;;;;6184558;23;20396;-90
2023/10/10 21:49:30;;;;;;;16.43;13.00;;;;;;;;;;6184366;23;20439;-90
2023/10/10 21:52:03;;;;;;;17.33;12.10;;;14.70;99.90;;;;;;6184033;23;20400;-91
2023/10/10 21:58:20;;;;;;;21.20;15.50;;;14.60;99.90;;;;;;6143509;23;20452;-91
2023/10/10 22:01:02;;;;;;;18.83;13.70;;;14.70;99.90;;;;;;6180221;23;20427;-93
2023/10/10 22:03:50;;;;;;;20.40;12.43;;;14.60;99.90;;;;;;6174050;23;20412;-92
2023/10/10 22:06:42;;;;;;;18.20;13.43;;;14.60;99.90;;;;;;6171248;23;20440;-91
2023/10/10 22:09:09;;;;;;;14.07;12.47;;;;;;;;;;6165621;23;20423;-90
2023/10/10 22:11:36;;;;;;;17.90;13.30;;;;;;;;;;6167822;23;20408;-90
2023/10/10 22:14:04;;;;;;;18.43;15.60;;;14.60;99.90;;;;;;6179544;23;20404;-91
2023/10/10 22:16:31;;;;;;;23.07;14.17;;;14.50;99.90;;;;;;6166227;23;20875;-90
2023/10/10 22:18:59;;;;;;;17.67;14.03;;;14.50;99.90;;;;;;6163259;23;20439;-90
2023/10/10 22:21:30;;;;;;;17.90;13.90;;;14.40;99.90;;;;;;6163606;23;20423;-90
2023/10/10 22:23:59;;;;;;;19.50;14.00;;;;;;;;;;6170454;23;20388;-91
2023/10/10 22:26:26;;;;;;;19.40;14.43;;;14.40;99.90;;;;;;6170485;23;20408;-90
2023/10/10 22:28:59;;;;;;;17.30;15.20;;;14.40;99.90;;;;;;6169824;23;20400;-89
2023/10/10 22:31:27;;;;;;;22.80;13.93;;;;;;;;;;6182352;23;20491;-91
2023/10/10 22:33:54;;;;;;;19.60;14.70;;;14.40;99.90;;;;;;6178993;23;20443;-90
2023/10/10 22:36:22;;;;;;;20.20;14.93;;;14.50;99.90;;;;;;6184555;23;20463;-89
2023/10/10 22:38:49;;;;;;;20.20;15.23;;;14.40;99.90;;;;;;6184520;23;20435;-87
2023/10/10 22:41:18;;;;;;;17.30;14.30;;;14.40;99.90;;;;;;6183526;23;20432;-91
2023/10/10 22:43:45;;;;;;;18.20;14.10;;;14.10;99.90;;;;;;6181520;23;20416;-91
2023/10/10 22:46:12;;;;;;;19.10;14.60;;;;;;;;;;6172403;23;20436;-90
2023/10/10 22:48:39;;;;;;;23.33;15.43;;;14.40;99.90;;;;;;6163165;23;20895;-89
2023/10/10 22:51:06;;;;;;;21.80;16.13;;;14.60;99.90;;;;;;6165456;23;20454;-87
2023/10/10 22:53:35;;;;;;;21.23;16.83;;;14.30;99.90;;;;;;6159712;23;20404;-87
2023/10/10 22:56:10;;;;;;;21.60;15.47;;;14.40;99.90;;;;;;6161863;23;20470;-89
2023/10/10 22:58:36;;;;;;;23.33;15.40;;;14.70;99.90;;;;;;6164525;23;20431;-89
2023/10/10 23:01:08;;;;;;;19.80;15.27;;;14.50;99.90;;;;;;6160358;23;20498;-90
2023/10/10 23:03:36;;;;;;;24.00;17.17;;;14.40;99.90;;;;;;6163165;23;20392;-90
2023/10/10 23:06:07;;;;;;;22.43;18.13;;;14.40;99.90;;;;;;6164744;23;20411;-91
2023/10/10 23:08:36;;;;;;;21.97;15.30;;;14.40;99.90;;;;;;6167408;23;20427;-91
2023/10/10 23:11:06;;;;;;;21.77;17.40;;;14.50;99.90;;;;;;6178446;23;20421;-90
2023/10/10 23:13:45;;;;;;;21.73;16.40;;;;;;;;;;6166291;23;20404;-91
2023/10/10 23:16:19;;;;;;;20.27;17.10;;;14.40;99.90;;;;;;6162863;23;20806;-90
2023/10/10 23:18:46;;;;;;;19.90;14.80;;;;;;;;;;6162566;23;20914;-90
2023/10/10 23:21:14;;;;;;;16.53;14.50;;;;;;;;;;6165887;23;20436;-90
2023/10/10 23:23:45;;;;;;;20.77;16.37;;;14.50;99.90;;;;;;6170138;23;20474;-90
2023/10/10 23:26:18;;;;;;;21.13;17.40;;;14.40;99.90;;;;;;6164475;23;20408;-91
2023/10/10 23:28:47;;;;;;;19.57;16.30;;;;;;;;;;6166967;23;20392;-90
2023/10/10 23:31:20;;;;;;;26.53;17.87;;;14.40;99.90;;;;;;6166128;23;20447;-89
2023/10/10 23:33:50;;;;;;;21.80;16.93;;;;;;;;;;6164131;23;20416;-89
2023/10/10 23:36:21;;;;;;;21.23;16.40;;;14.20;99.90;;;;;;6164377;23;20487;-90
2023/10/10 23:39:05;;;;;;;29.33;17.23;;;14.40;99.90;;;;;;6165454;23;20444;-92
2023/10/10 23:42:05;;;;;;;18.03;14.60;;;14.40;99.90;;;;;;6192285;23;20469;-91
2023/10/10 23:44:41;;;;;;;27.53;15.93;;;;;;;;;;6195359;23;20421;-91
2023/10/10 23:47:18;;;;;;;22.13;17.77;;;14.40;99.90;;;;;;6197039;23;20394;-91
2023/10/10 23:50:00;;;;;;;23.37;17.57;;;14.40;99.90;;;;;;6201823;23;20925;-91
2023/10/10 23:52:39;;;;;;;22.63;17.70;;;14.30;99.90;;;;;;6193685;23;20426;-90
2023/10/10 23:55:16;;;;;;;25.67;17.60;;;14.40;99.90;;;;;;6194544;23;20469;-90
2023/10/10 23:57:46;;;;;;;25.93;18.23;;;;;;;;;;6194292;23;20457;-90
